CYTZ METAR and TAF weather

Enter ICAO airport designator

Example: see airport list

Station Type Date Time Source
CYTZ METAR 2016/05/28 19:00 UTC NOAA

CYTZ 281900Z AUTO 06007KT 9SM CLR 23/18 A3004 RMK SLP174 DENSITY ALT 1000FT

Station Type Date Time Source
CYTZ Decoded METAR 2016/05/28 19:00 UTC NOAA

Toronto Island Airport Automated Reporting Station, Canada (CYTZ) 43-38N 079-24W
May 28, 2016 - 03:00 PM EDT / 2016.05.28 1900 UTC
Wind: from the ENE (060 degrees) at 8 MPH (7 KT):0
Visibility: 9 mile(s):0
Sky conditions: clear
Temperature: 73 F (23 C)
Dew Point: 64 F (18 C)
Relative Humidity: 73%
Pressure (altimeter): 30.04 in. Hg (1017 hPa)
ob: CYTZ 281900Z AUTO 06007KT 9SM CLR 23/18 A3004 RMK SLP174 DENSITY ALT 1000FT
cycle: 19

Station Type Date Time Source
CYTZ TAF 2016/05/28 20:44 UTC NOAA

TAF CYTZ 281938Z 2820/2920 08008KT P6SM BKN060 PROB30 2820/2901 2SM TSRA BR BKN030CB
FM290100 20005KT P6SM SCT060
FM290500 VRB03KT 6SM BR SCT060
TEMPO 2905/2909 3SM -SHRA BR BKN060 PROB30 2905/2909 2SM BR
FM290900 VRB03KT 4SM BR FEW005 SCT250
FM291300 VRB03KT P6SM FEW250
BECMG 2915/2917 16011KT
FM291800 16011KT P6SM BKN040 PROB30 2918/2920 2SM TSRA BR OVC030CB
RMK FCST BASED ON AUTO OBS. NXT FCST BY 290200Z